sensor_id;sensor_type;location;lat;lon;timestamp;P1;durP1;ratioP1;P2;durP2;ratioP2
62338;SDS011;48368;53.406;6.214;2022-12-29T00:01:38;27.52;;;13.85;;
62338;SDS011;48368;53.406;6.214;2022-12-29T00:04:04;24.65;;;13.30;;
62338;SDS011;48368;53.406;6.214;2022-12-29T00:06:31;24.40;;;12.45;;
62338;SDS011;48368;53.406;6.214;2022-12-29T00:08:57;28.90;;;13.15;;
62338;SDS011;48368;53.406;6.214;2022-12-29T00:11:24;25.67;;;13.18;;
62338;SDS011;48368;53.406;6.214;2022-12-29T00:13:51;24.48;;;13.00;;
62338;SDS011;48368;53.406;6.214;2022-12-29T00:16:36;23.33;;;12.13;;
62338;SDS011;48368;53.406;6.214;2022-12-29T00:19:03;24.05;;;12.20;;
62338;SDS011;48368;53.406;6.214;2022-12-29T00:21:30;26.83;;;13.48;;
62338;SDS011;48368;53.406;6.214;2022-12-29T00:24:19;23.55;;;10.93;;
62338;SDS011;48368;53.406;6.214;2022-12-29T00:26:56;24.40;;;13.25;;
62338;SDS011;48368;53.406;6.214;2022-12-29T00:29:45;20.70;;;10.63;;
62338;SDS011;48368;53.406;6.214;2022-12-29T00:32:29;21.17;;;11.65;;
62338;SDS011;48368;53.406;6.214;2022-12-29T00:35:19;24.50;;;11.85;;
62338;SDS011;48368;53.406;6.214;2022-12-29T00:37:51;25.58;;;11.32;;
62338;SDS011;48368;53.406;6.214;2022-12-29T00:40:37;25.73;;;11.32;;
62338;SDS011;48368;53.406;6.214;2022-12-29T00:43:21;21.45;;;11.95;;
62338;SDS011;48368;53.406;6.214;2022-12-29T00:46:05;26.05;;;13.18;;
62338;SDS011;48368;53.406;6.214;2022-12-29T00:48:31;24.83;;;12.88;;
62338;SDS011;48368;53.406;6.214;2022-12-29T00:51:16;23.90;;;12.00;;
62338;SDS011;48368;53.406;6.214;2022-12-29T00:53:41;25.80;;;12.48;;
62338;SDS011;48368;53.406;6.214;2022-12-29T00:56:07;26.73;;;13.85;;
62338;SDS011;48368;53.406;6.214;2022-12-29T00:58:33;32.55;;;13.90;;
62338;SDS011;48368;53.406;6.214;2022-12-29T01:01:02;31.25;;;14.65;;
62338;SDS011;48368;53.406;6.214;2022-12-29T01:03:29;28.58;;;14.20;;
62338;SDS011;48368;53.406;6.214;2022-12-29T01:05:55;27.23;;;14.23;;
62338;SDS011;48368;53.406;6.214;2022-12-29T01:08:20;30.83;;;13.88;;
62338;SDS011;48368;53.406;6.214;2022-12-29T01:10:46;28.70;;;14.35;;
62338;SDS011;48368;53.406;6.214;2022-12-29T01:13:11;27.17;;;13.70;;
62338;SDS011;48368;53.406;6.214;2022-12-29T01:15:37;28.33;;;13.77;;
62338;SDS011;48368;53.406;6.214;2022-12-29T01:18:03;36.08;;;14.40;;
62338;SDS011;48368;53.406;6.214;2022-12-29T01:20:28;31.05;;;14.95;;
62338;SDS011;48368;53.406;6.214;2022-12-29T01:22:54;33.40;;;16.13;;
62338;SDS011;48368;53.406;6.214;2022-12-29T01:25:20;25.63;;;13.95;;
62338;SDS011;48368;53.406;6.214;2022-12-29T01:27:45;27.20;;;14.23;;
62338;SDS011;48368;53.406;6.214;2022-12-29T01:30:11;29.58;;;15.27;;
62338;SDS011;48368;53.406;6.214;2022-12-29T01:32:37;30.80;;;14.85;;
62338;SDS011;48368;53.406;6.214;2022-12-29T01:35:03;32.53;;;15.98;;
62338;SDS011;48368;53.406;6.214;2022-12-29T01:37:29;27.88;;;14.93;;
62338;SDS011;48368;53.406;6.214;2022-12-29T01:39:54;31.42;;;14.90;;
62338;SDS011;48368;53.406;6.214;2022-12-29T01:42:22;31.88;;;14.88;;
62338;SDS011;48368;53.406;6.214;2022-12-29T01:44:52;30.70;;;13.60;;
62338;SDS011;48368;53.406;6.214;2022-12-29T01:47:35;29.52;;;14.70;;
62338;SDS011;48368;53.406;6.214;2022-12-29T01:50:09;24.60;;;13.20;;
62338;SDS011;48368;53.406;6.214;2022-12-29T01:52:42;26.67;;;13.73;;
62338;SDS011;48368;53.406;6.214;2022-12-29T01:55:14;24.42;;;13.85;;
62338;SDS011;48368;53.406;6.214;2022-12-29T01:57:40;24.20;;;11.48;;
62338;SDS011;48368;53.406;6.214;2022-12-29T02:00:11;28.63;;;12.85;;
62338;SDS011;48368;53.406;6.214;2022-12-29T02:02:39;27.17;;;13.65;;
62338;SDS011;48368;53.406;6.214;2022-12-29T02:05:13;26.70;;;13.38;;
62338;SDS011;48368;53.406;6.214;2022-12-29T02:07:43;24.90;;;12.93;;
62338;SDS011;48368;53.406;6.214;2022-12-29T02:10:10;25.30;;;11.90;;
62338;SDS011;48368;53.406;6.214;2022-12-29T02:12:35;20.38;;;10.52;;
62338;SDS011;48368;53.406;6.214;2022-12-29T02:15:02;23.80;;;10.15;;
62338;SDS011;48368;53.406;6.214;2022-12-29T02:31:54;28.63;;;12.25;;
62338;SDS011;48368;53.406;6.214;2022-12-29T02:34:12;20.77;;;10.75;;
62338;SDS011;48368;53.406;6.214;2022-12-29T02:36:49;26.98;;;11.50;;
62338;SDS011;48368;53.406;6.214;2022-12-29T02:40:07;12.55;;;6.30;;
62338;SDS011;48368;53.406;6.214;2022-12-29T02:45:09;8.88;;;4.70;;
62338;SDS011;48368;53.406;6.214;2022-12-29T02:48:16;7.95;;;2.97;;
62338;SDS011;48368;53.406;6.214;2022-12-29T02:51:00;8.30;;;2.30;;
62338;SDS011;48368;53.406;6.214;2022-12-29T02:53:37;8.93;;;1.95;;
62338;SDS011;48368;53.406;6.214;2022-12-29T02:56:22;7.25;;;1.50;;
62338;SDS011;48368;53.406;6.214;2022-12-29T02:58:48;10.88;;;2.28;;
62338;SDS011;48368;53.406;6.214;2022-12-29T03:07:24;5.05;;;1.48;;
62338;SDS011;48368;53.406;6.214;2022-12-29T03:12:55;3.35;;;1.25;;
62338;SDS011;48368;53.406;6.214;2022-12-29T03:15:46;3.42;;;1.23;;
62338;SDS011;48368;53.406;6.214;2022-12-29T03:21:11;4.88;;;1.40;;
62338;SDS011;48368;53.406;6.214;2022-12-29T03:24:12;6.72;;;2.35;;
62338;SDS011;48368;53.406;6.214;2022-12-29T03:26:38;7.18;;;3.20;;
62338;SDS011;48368;53.406;6.214;2022-12-29T03:29:07;10.90;;;4.47;;
62338;SDS011;48368;53.406;6.214;2022-12-29T03:31:34;13.43;;;6.10;;
62338;SDS011;48368;53.406;6.214;2022-12-29T03:34:02;14.10;;;6.18;;
62338;SDS011;48368;53.406;6.214;2022-12-29T03:36:34;10.35;;;6.07;;
62338;SDS011;48368;53.406;6.214;2022-12-29T03:39:08;16.83;;;7.72;;
62338;SDS011;48368;53.406;6.214;2022-12-29T03:41:37;18.42;;;7.93;;
62338;SDS011;48368;53.406;6.214;2022-12-29T03:44:06;24.63;;;7.53;;
62338;SDS011;48368;53.406;6.214;2022-12-29T03:46:32;19.73;;;7.18;;
62338;SDS011;48368;53.406;6.214;2022-12-29T03:48:57;21.80;;;7.03;;
62338;SDS011;48368;53.406;6.214;2022-12-29T03:51:23;32.53;;;9.40;;
62338;SDS011;48368;53.406;6.214;2022-12-29T03:53:49;17.90;;;5.00;;
62338;SDS011;48368;53.406;6.214;2022-12-29T03:56:14;26.95;;;5.50;;
62338;SDS011;48368;53.406;6.214;2022-12-29T03:58:40;14.13;;;4.47;;
62338;SDS011;48368;53.406;6.214;2022-12-29T04:01:06;19.95;;;6.28;;
62338;SDS011;48368;53.406;6.214;2022-12-29T04:03:31;16.08;;;4.80;;
62338;SDS011;48368;53.406;6.214;2022-12-29T04:05:57;21.35;;;4.38;;
62338;SDS011;48368;53.406;6.214;2022-12-29T04:08:23;15.05;;;4.35;;
62338;SDS011;48368;53.406;6.214;2022-12-29T04:10:49;12.63;;;4.13;;
62338;SDS011;48368;53.406;6.214;2022-12-29T04:13:15;11.10;;;3.80;;
62338;SDS011;48368;53.406;6.214;2022-12-29T04:15:42;15.25;;;2.95;;
62338;SDS011;48368;53.406;6.214;2022-12-29T04:18:08;19.13;;;4.32;;
62338;SDS011;48368;53.406;6.214;2022-12-29T04:20:34;15.25;;;5.13;;
62338;SDS011;48368;53.406;6.214;2022-12-29T04:23:18;8.63;;;3.53;;
62338;SDS011;48368;53.406;6.214;2022-12-29T04:25:47;18.98;;;6.07;;
62338;SDS011;48368;53.406;6.214;2022-12-29T04:28:13;14.85;;;4.10;;
62338;SDS011;48368;53.406;6.214;2022-12-29T04:30:39;13.75;;;3.95;;
62338;SDS011;48368;53.406;6.214;2022-12-29T04:33:05;13.18;;;3.88;;
62338;SDS011;48368;53.406;6.214;2022-12-29T04:35:31;13.27;;;4.13;;
62338;SDS011;48368;53.406;6.214;2022-12-29T04:37:57;11.05;;;3.95;;
62338;SDS011;48368;53.406;6.214;2022-12-29T04:40:23;11.27;;;3.60;;
62338;SDS011;48368;53.406;6.214;2022-12-29T04:42:49;22.65;;;4.03;;
62338;SDS011;48368;53.406;6.214;2022-12-29T04:45:15;16.05;;;3.88;;
62338;SDS011;48368;53.406;6.214;2022-12-29T04:47:40;13.82;;;4.78;;
62338;SDS011;48368;53.406;6.214;2022-12-29T04:50:06;21.92;;;4.25;;
62338;SDS011;48368;53.406;6.214;2022-12-29T04:52:32;22.02;;;3.72;;
62338;SDS011;48368;53.406;6.214;2022-12-29T04:54:58;24.02;;;5.03;;
62338;SDS011;48368;53.406;6.214;2022-12-29T04:57:23;20.17;;;3.47;;
62338;SDS011;48368;53.406;6.214;2022-12-29T04:59:49;32.42;;;5.85;;
62338;SDS011;48368;53.406;6.214;2022-12-29T05:02:15;28.10;;;4.78;;
62338;SDS011;48368;53.406;6.214;2022-12-29T05:04:41;29.63;;;4.50;;
62338;SDS011;48368;53.406;6.214;2022-12-29T05:07:07;42.15;;;5.05;;
62338;SDS011;48368;53.406;6.214;2022-12-29T05:09:33;27.90;;;4.63;;
62338;SDS011;48368;53.406;6.214;2022-12-29T05:11:58;30.15;;;4.43;;
62338;SDS011;48368;53.406;6.214;2022-12-29T05:14:24;34.88;;;4.28;;
62338;SDS011;48368;53.406;6.214;2022-12-29T05:16:50;30.48;;;4.60;;
62338;SDS011;48368;53.406;6.214;2022-12-29T05:19:16;38.42;;;4.45;;
62338;SDS011;48368;53.406;6.214;2022-12-29T05:21:41;27.35;;;3.88;;
62338;SDS011;48368;53.406;6.214;2022-12-29T05:24:08;36.75;;;4.50;;
62338;SDS011;48368;53.406;6.214;2022-12-29T05:26:33;26.65;;;3.83;;
62338;SDS011;48368;53.406;6.214;2022-12-29T05:28:59;29.67;;;5.30;;
62338;SDS011;48368;53.406;6.214;2022-12-29T05:31:25;30.02;;;3.63;;
62338;SDS011;48368;53.406;6.214;2022-12-29T05:33:51;40.17;;;4.90;;
62338;SDS011;48368;53.406;6.214;2022-12-29T05:36:17;54.50;;;6.20;;
62338;SDS011;48368;53.406;6.214;2022-12-29T05:38:43;34.67;;;5.70;;
62338;SDS011;48368;53.406;6.214;2022-12-29T05:41:08;34.85;;;5.88;;
62338;SDS011;48368;53.406;6.214;2022-12-29T05:43:35;31.40;;;5.03;;
62338;SDS011;48368;53.406;6.214;2022-12-29T05:46:01;27.50;;;4.07;;
62338;SDS011;48368;53.406;6.214;2022-12-29T05:48:27;29.00;;;4.85;;
62338;SDS011;48368;53.406;6.214;2022-12-29T05:50:53;35.30;;;5.90;;
62338;SDS011;48368;53.406;6.214;2022-12-29T05:53:19;26.73;;;3.90;;
62338;SDS011;48368;53.406;6.214;2022-12-29T05:55:48;36.72;;;4.72;;
62338;SDS011;48368;53.406;6.214;2022-12-29T05:58:15;20.48;;;3.25;;
62338;SDS011;48368;53.406;6.214;2022-12-29T06:00:41;28.63;;;5.07;;
62338;SDS011;48368;53.406;6.214;2022-12-29T06:03:07;29.50;;;3.67;;
62338;SDS011;48368;53.406;6.214;2022-12-29T06:05:33;45.60;;;5.85;;
62338;SDS011;48368;53.406;6.214;2022-12-29T06:07:59;38.67;;;4.57;;
62338;SDS011;48368;53.406;6.214;2022-12-29T06:10:24;30.27;;;4.18;;
62338;SDS011;48368;53.406;6.214;2022-12-29T06:12:50;26.88;;;3.47;;
62338;SDS011;48368;53.406;6.214;2022-12-29T06:15:16;26.33;;;3.60;;
62338;SDS011;48368;53.406;6.214;2022-12-29T06:17:42;34.05;;;4.93;;
62338;SDS011;48368;53.406;6.214;2022-12-29T06:20:08;22.58;;;4.00;;
62338;SDS011;48368;53.406;6.214;2022-12-29T06:22:35;26.05;;;3.53;;
62338;SDS011;48368;53.406;6.214;2022-12-29T06:25:01;26.38;;;4.07;;
62338;SDS011;48368;53.406;6.214;2022-12-29T06:27:27;32.65;;;3.92;;
62338;SDS011;48368;53.406;6.214;2022-12-29T06:29:53;20.90;;;3.58;;
62338;SDS011;48368;53.406;6.214;2022-12-29T06:32:19;31.48;;;4.10;;
62338;SDS011;48368;53.406;6.214;2022-12-29T06:34:45;23.38;;;4.90;;
62338;SDS011;48368;53.406;6.214;2022-12-29T06:37:11;24.83;;;4.60;;
62338;SDS011;48368;53.406;6.214;2022-12-29T06:39:37;36.50;;;4.50;;
62338;SDS011;48368;53.406;6.214;2022-12-29T06:42:02;35.58;;;5.53;;
62338;SDS011;48368;53.406;6.214;2022-12-29T06:44:28;33.00;;;4.60;;
62338;SDS011;48368;53.406;6.214;2022-12-29T06:46:54;35.35;;;4.78;;
62338;SDS011;48368;53.406;6.214;2022-12-29T06:49:20;45.58;;;7.80;;
62338;SDS011;48368;53.406;6.214;2022-12-29T06:51:46;34.10;;;4.43;;
62338;SDS011;48368;53.406;6.214;2022-12-29T06:54:12;34.45;;;6.30;;
62338;SDS011;48368;53.406;6.214;2022-12-29T06:56:37;26.73;;;3.97;;
62338;SDS011;48368;53.406;6.214;2022-12-29T06:59:03;42.60;;;5.47;;
62338;SDS011;48368;53.406;6.214;2022-12-29T07:01:29;35.45;;;5.65;;
62338;SDS011;48368;53.406;6.214;2022-12-29T07:03:55;34.60;;;6.18;;
62338;SDS011;48368;53.406;6.214;2022-12-29T07:06:20;40.97;;;5.88;;
62338;SDS011;48368;53.406;6.214;2022-12-29T07:08:46;35.47;;;5.82;;
62338;SDS011;48368;53.406;6.214;2022-12-29T07:11:12;46.33;;;5.85;;
62338;SDS011;48368;53.406;6.214;2022-12-29T07:13:38;36.13;;;4.70;;
62338;SDS011;48368;53.406;6.214;2022-12-29T07:16:07;38.38;;;5.22;;
62338;SDS011;48368;53.406;6.214;2022-12-29T07:18:33;44.13;;;4.75;;
62338;SDS011;48368;53.406;6.214;2022-12-29T07:20:59;31.00;;;4.65;;
62338;SDS011;48368;53.406;6.214;2022-12-29T07:23:25;42.95;;;7.22;;
62338;SDS011;48368;53.406;6.214;2022-12-29T07:25:58;44.53;;;5.85;;
62338;SDS011;48368;53.406;6.214;2022-12-29T07:28:28;43.75;;;6.20;;
62338;SDS011;48368;53.406;6.214;2022-12-29T07:30:54;36.70;;;5.78;;
62338;SDS011;48368;53.406;6.214;2022-12-29T07:33:20;34.30;;;6.45;;
62338;SDS011;48368;53.406;6.214;2022-12-29T07:35:46;43.20;;;5.03;;
62338;SDS011;48368;53.406;6.214;2022-12-29T07:38:12;57.65;;;5.72;;
62338;SDS011;48368;53.406;6.214;2022-12-29T07:40:37;35.58;;;4.90;;
62338;SDS011;48368;53.406;6.214;2022-12-29T07:43:03;44.40;;;6.07;;
62338;SDS011;48368;53.406;6.214;2022-12-29T07:45:29;45.08;;;5.50;;
62338;SDS011;48368;53.406;6.214;2022-12-29T07:47:55;33.50;;;4.65;;
62338;SDS011;48368;53.406;6.214;2022-12-29T07:50:21;45.15;;;6.80;;
62338;SDS011;48368;53.406;6.214;2022-12-29T07:52:46;33.97;;;4.82;;
62338;SDS011;48368;53.406;6.214;2022-12-29T07:55:13;40.13;;;5.47;;
62338;SDS011;48368;53.406;6.214;2022-12-29T07:57:39;40.75;;;6.03;;
62338;SDS011;48368;53.406;6.214;2022-12-29T08:00:05;49.70;;;7.65;;
62338;SDS011;48368;53.406;6.214;2022-12-29T08:02:31;43.28;;;6.43;;
62338;SDS011;48368;53.406;6.214;2022-12-29T08:04:57;47.13;;;6.72;;
62338;SDS011;48368;53.406;6.214;2022-12-29T08:07:22;32.40;;;6.50;;
62338;SDS011;48368;53.406;6.214;2022-12-29T08:09:48;36.95;;;4.80;;
62338;SDS011;48368;53.406;6.214;2022-12-29T08:12:13;34.20;;;4.75;;
62338;SDS011;48368;53.406;6.214;2022-12-29T08:14:39;34.70;;;5.20;;
62338;SDS011;48368;53.406;6.214;2022-12-29T08:17:05;39.13;;;4.90;;
62338;SDS011;48368;53.406;6.214;2022-12-29T08:19:30;37.50;;;5.32;;
62338;SDS011;48368;53.406;6.214;2022-12-29T08:21:56;30.75;;;4.85;;
62338;SDS011;48368;53.406;6.214;2022-12-29T08:24:22;29.63;;;4.63;;
62338;SDS011;48368;53.406;6.214;2022-12-29T08:26:47;32.60;;;4.05;;
62338;SDS011;48368;53.406;6.214;2022-12-29T08:29:13;36.70;;;5.97;;
62338;SDS011;48368;53.406;6.214;2022-12-29T08:31:38;28.30;;;4.03;;
62338;SDS011;48368;53.406;6.214;2022-12-29T08:34:04;49.00;;;6.50;;
62338;SDS011;48368;53.406;6.214;2022-12-29T08:36:30;42.70;;;5.10;;
62338;SDS011;48368;53.406;6.214;2022-12-29T08:38:56;43.00;;;5.70;;
62338;SDS011;48368;53.406;6.214;2022-12-29T08:41:22;32.13;;;4.90;;
62338;SDS011;48368;53.406;6.214;2022-12-29T08:43:48;33.47;;;4.63;;
62338;SDS011;48368;53.406;6.214;2022-12-29T08:46:14;42.83;;;5.93;;
62338;SDS011;48368;53.406;6.214;2022-12-29T08:48:40;39.00;;;6.00;;
62338;SDS011;48368;53.406;6.214;2022-12-29T08:51:06;51.88;;;7.78;;
62338;SDS011;48368;53.406;6.214;2022-12-29T08:53:32;45.80;;;5.43;;
62338;SDS011;48368;53.406;6.214;2022-12-29T08:55:59;51.25;;;6.82;;
62338;SDS011;48368;53.406;6.214;2022-12-29T08:58:26;48.83;;;7.22;;
62338;SDS011;48368;53.406;6.214;2022-12-29T09:00:53;56.33;;;7.45;;
62338;SDS011;48368;53.406;6.214;2022-12-29T09:03:20;44.67;;;7.70;;
62338;SDS011;48368;53.406;6.214;2022-12-29T09:05:50;41.55;;;5.70;;
62338;SDS011;48368;53.406;6.214;2022-12-29T09:08:17;52.95;;;5.78;;
62338;SDS011;48368;53.406;6.214;2022-12-29T09:10:43;37.10;;;5.35;;
62338;SDS011;48368;53.406;6.214;2022-12-29T09:13:09;38.20;;;5.45;;
62338;SDS011;48368;53.406;6.214;2022-12-29T09:15:36;57.22;;;7.38;;
62338;SDS011;48368;53.406;6.214;2022-12-29T09:18:01;43.05;;;6.57;;
62338;SDS011;48368;53.406;6.214;2022-12-29T09:20:27;47.05;;;6.03;;
62338;SDS011;48368;53.406;6.214;2022-12-29T09:22:53;41.78;;;6.90;;
62338;SDS011;48368;53.406;6.214;2022-12-29T09:25:19;52.78;;;7.35;;
62338;SDS011;48368;53.406;6.214;2022-12-29T09:27:45;44.85;;;5.68;;
62338;SDS011;48368;53.406;6.214;2022-12-29T09:30:12;43.33;;;6.32;;
62338;SDS011;48368;53.406;6.214;2022-12-29T09:32:39;36.47;;;5.72;;
62338;SDS011;48368;53.406;6.214;2022-12-29T09:35:06;44.25;;;7.82;;
62338;SDS011;48368;53.406;6.214;2022-12-29T09:37:32;41.15;;;6.05;;
62338;SDS011;48368;53.406;6.214;2022-12-29T09:39:57;40.55;;;7.10;;
62338;SDS011;48368;53.406;6.214;2022-12-29T09:42:25;44.75;;;7.65;;
62338;SDS011;48368;53.406;6.214;2022-12-29T09:47:40;51.47;;;8.85;;
62338;SDS011;48368;53.406;6.214;2022-12-29T09:50:24;37.08;;;6.05;;
62338;SDS011;48368;53.406;6.214;2022-12-29T09:53:11;41.78;;;6.90;;
62338;SDS011;48368;53.406;6.214;2022-12-29T09:55:50;61.63;;;7.03;;
62338;SDS011;48368;53.406;6.214;2022-12-29T10:03:53;29.17;;;5.00;;
62338;SDS011;48368;53.406;6.214;2022-12-29T10:06:22;31.13;;;4.63;;
62338;SDS011;48368;53.406;6.214;2022-12-29T10:09:15;31.13;;;5.40;;
62338;SDS011;48368;53.406;6.214;2022-12-29T10:14:45;24.05;;;5.13;;
62338;SDS011;48368;53.406;6.214;2022-12-29T10:25:46;31.40;;;4.63;;
62338;SDS011;48368;53.406;6.214;2022-12-29T10:28:18;31.33;;;4.95;;
62338;SDS011;48368;53.406;6.214;2022-12-29T10:30:49;36.00;;;5.63;;
62338;SDS011;48368;53.406;6.214;2022-12-29T10:33:21;40.13;;;5.90;;
62338;SDS011;48368;53.406;6.214;2022-12-29T10:35:51;44.30;;;6.72;;
62338;SDS011;48368;53.406;6.214;2022-12-29T10:38:25;53.60;;;7.18;;
62338;SDS011;48368;53.406;6.214;2022-12-29T10:43:47;55.95;;;6.80;;
62338;SDS011;48368;53.406;6.214;2022-12-29T10:46:18;41.63;;;6.45;;
62338;SDS011;48368;53.406;6.214;2022-12-29T10:48:51;46.40;;;8.25;;
62338;SDS011;48368;53.406;6.214;2022-12-29T10:57:02;41.50;;;6.03;;
62338;SDS011;48368;53.406;6.214;2022-12-29T10:59:33;60.50;;;7.25;;
62338;SDS011;48368;53.406;6.214;2022-12-29T11:07:07;45.33;;;8.50;;
62338;SDS011;48368;53.406;6.214;2022-12-29T11:09:35;40.58;;;6.03;;
62338;SDS011;48368;53.406;6.214;2022-12-29T11:15:02;59.92;;;6.25;;
62338;SDS011;48368;53.406;6.214;2022-12-29T11:17:47;35.63;;;4.60;;
62338;SDS011;48368;53.406;6.214;2022-12-29T11:20:19;34.92;;;6.13;;
62338;SDS011;48368;53.406;6.214;2022-12-29T11:22:52;50.28;;;8.68;;
62338;SDS011;48368;53.406;6.214;2022-12-29T11:25:17;29.58;;;4.97;;
62338;SDS011;48368;53.406;6.214;2022-12-29T11:27:54;34.45;;;6.25;;
62338;SDS011;48368;53.406;6.214;2022-12-29T11:30:23;38.10;;;5.93;;
62338;SDS011;48368;53.406;6.214;2022-12-29T11:32:52;30.73;;;4.07;;
62338;SDS011;48368;53.406;6.214;2022-12-29T11:35:29;26.90;;;4.63;;
62338;SDS011;48368;53.406;6.214;2022-12-29T11:37:59;29.38;;;3.90;;
62338;SDS011;48368;53.406;6.214;2022-12-29T11:40:27;21.70;;;3.83;;
62338;SDS011;48368;53.406;6.214;2022-12-29T11:43:02;22.85;;;3.55;;
62338;SDS011;48368;53.406;6.214;2022-12-29T11:45:30;26.50;;;4.60;;
62338;SDS011;48368;53.406;6.214;2022-12-29T11:53:01;22.45;;;4.70;;
62338;SDS011;48368;53.406;6.214;2022-12-29T11:55:30;25.83;;;3.40;;
62338;SDS011;48368;53.406;6.214;2022-12-29T11:57:57;18.33;;;3.42;;
62338;SDS011;48368;53.406;6.214;2022-12-29T12:00:27;21.00;;;3.13;;
62338;SDS011;48368;53.406;6.214;2022-12-29T12:03:05;19.55;;;3.92;;
62338;SDS011;48368;53.406;6.214;2022-12-29T12:05:46;18.00;;;3.90;;
62338;SDS011;48368;53.406;6.214;2022-12-29T12:10:55;15.00;;;2.65;;
62338;SDS011;48368;53.406;6.214;2022-12-29T12:16:32;21.63;;;3.53;;
62338;SDS011;48368;53.406;6.214;2022-12-29T12:22:05;20.13;;;2.78;;
62338;SDS011;48368;53.406;6.214;2022-12-29T12:29:43;16.55;;;3.72;;
62338;SDS011;48368;53.406;6.214;2022-12-29T12:32:20;18.17;;;3.13;;
62338;SDS011;48368;53.406;6.214;2022-12-29T12:34:52;16.40;;;3.65;;
62338;SDS011;48368;53.406;6.214;2022-12-29T12:37:22;16.08;;;2.20;;
62338;SDS011;48368;53.406;6.214;2022-12-29T12:40:21;16.15;;;2.70;;
62338;SDS011;48368;53.406;6.214;2022-12-29T12:45:47;17.50;;;3.17;;
62338;SDS011;48368;53.406;6.214;2022-12-29T12:48:28;28.33;;;5.07;;
62338;SDS011;48368;53.406;6.214;2022-12-29T12:51:08;26.88;;;4.97;;
62338;SDS011;48368;53.406;6.214;2022-12-29T12:53:58;19.00;;;3.08;;
62338;SDS011;48368;53.406;6.214;2022-12-29T12:59:20;23.25;;;2.88;;
62338;SDS011;48368;53.406;6.214;2022-12-29T13:02:40;15.80;;;2.88;;
62338;SDS011;48368;53.406;6.214;2022-12-29T13:10:42;14.90;;;2.58;;
62338;SDS011;48368;53.406;6.214;2022-12-29T13:16:17;22.27;;;2.60;;
62338;SDS011;48368;53.406;6.214;2022-12-29T13:24:15;23.65;;;2.85;;
62338;SDS011;48368;53.406;6.214;2022-12-29T13:27:00;24.25;;;2.25;;
62338;SDS011;48368;53.406;6.214;2022-12-29T13:29:37;16.95;;;2.30;;
62338;SDS011;48368;53.406;6.214;2022-12-29T13:37:29;22.20;;;2.78;;
62338;SDS011;48368;53.406;6.214;2022-12-29T13:39:59;15.63;;;2.45;;
62338;SDS011;48368;53.406;6.214;2022-12-29T13:42:28;17.33;;;2.47;;
62338;SDS011;48368;53.406;6.214;2022-12-29T13:44:57;22.25;;;3.88;;
62338;SDS011;48368;53.406;6.214;2022-12-29T13:47:35;22.17;;;3.17;;
62338;SDS011;48368;53.406;6.214;2022-12-29T13:50:05;16.70;;;2.65;;
62338;SDS011;48368;53.406;6.214;2022-12-29T13:55:29;29.02;;;3.20;;
62338;SDS011;48368;53.406;6.214;2022-12-29T14:00:52;22.15;;;2.78;;
62338;SDS011;48368;53.406;6.214;2022-12-29T14:06:21;22.35;;;5.07;;
62338;SDS011;48368;53.406;6.214;2022-12-29T14:08:52;24.95;;;3.20;;
62338;SDS011;48368;53.406;6.214;2022-12-29T14:11:21;23.00;;;3.20;;
62338;SDS011;48368;53.406;6.214;2022-12-29T14:13:59;18.98;;;3.60;;
62338;SDS011;48368;53.406;6.214;2022-12-29T14:16:36;21.02;;;2.78;;
62338;SDS011;48368;53.406;6.214;2022-12-29T14:19:13;22.85;;;2.55;;
62338;SDS011;48368;53.406;6.214;2022-12-29T14:21:58;14.57;;;2.83;;
62338;SDS011;48368;53.406;6.214;2022-12-29T14:32:33;20.50;;;2.92;;
62338;SDS011;48368;53.406;6.214;2022-12-29T14:34:49;28.35;;;3.25;;
62338;SDS011;48368;53.406;6.214;2022-12-29T14:39:49;17.60;;;2.75;;
62338;SDS011;48368;53.406;6.214;2022-12-29T14:42:27;20.60;;;4.38;;
62338;SDS011;48368;53.406;6.214;2022-12-29T14:45:00;17.05;;;2.88;;
62338;SDS011;48368;53.406;6.214;2022-12-29T14:47:40;17.88;;;2.10;;
62338;SDS011;48368;53.406;6.214;2022-12-29T14:50:22;27.63;;;3.50;;
62338;SDS011;48368;53.406;6.214;2022-12-29T14:58:04;16.13;;;3.10;;
62338;SDS011;48368;53.406;6.214;2022-12-29T15:00:34;22.35;;;3.05;;
62338;SDS011;48368;53.406;6.214;2022-12-29T15:03:05;25.52;;;3.03;;
62338;SDS011;48368;53.406;6.214;2022-12-29T15:05:41;25.35;;;4.22;;
62338;SDS011;48368;53.406;6.214;2022-12-29T15:08:07;27.02;;;5.20;;
62338;SDS011;48368;53.406;6.214;2022-12-29T15:10:50;24.88;;;5.20;;
62338;SDS011;48368;53.406;6.214;2022-12-29T15:13:23;26.42;;;3.45;;
62338;SDS011;48368;53.406;6.214;2022-12-29T15:15:57;19.58;;;3.13;;
62338;SDS011;48368;53.406;6.214;2022-12-29T15:18:27;25.60;;;4.70;;
62338;SDS011;48368;53.406;6.214;2022-12-29T15:21:04;17.90;;;2.83;;
62338;SDS011;48368;53.406;6.214;2022-12-29T15:23:32;16.35;;;3.17;;
62338;SDS011;48368;53.406;6.214;2022-12-29T15:28:27;21.42;;;4.05;;
62338;SDS011;48368;53.406;6.214;2022-12-29T15:31:03;18.05;;;3.70;;
62338;SDS011;48368;53.406;6.214;2022-12-29T15:33:30;19.42;;;2.50;;
62338;SDS011;48368;53.406;6.214;2022-12-29T15:35:57;12.48;;;4.57;;
62338;SDS011;48368;53.406;6.214;2022-12-29T15:38:29;24.65;;;3.45;;
62338;SDS011;48368;53.406;6.214;2022-12-29T15:41:00;24.23;;;3.60;;
62338;SDS011;48368;53.406;6.214;2022-12-29T15:46:11;18.70;;;3.90;;
62338;SDS011;48368;53.406;6.214;2022-12-29T15:48:38;27.30;;;3.78;;
62338;SDS011;48368;53.406;6.214;2022-12-29T15:51:09;23.38;;;3.55;;
62338;SDS011;48368;53.406;6.214;2022-12-29T15:53:49;46.13;;;5.05;;
62338;SDS011;48368;53.406;6.214;2022-12-29T15:56:16;22.15;;;3.58;;
62338;SDS011;48368;53.406;6.214;2022-12-29T15:58:44;32.15;;;3.90;;
62338;SDS011;48368;53.406;6.214;2022-12-29T16:01:20;16.90;;;4.38;;
62338;SDS011;48368;53.406;6.214;2022-12-29T16:03:57;27.17;;;4.03;;
62338;SDS011;48368;53.406;6.214;2022-12-29T16:06:31;32.65;;;3.92;;
62338;SDS011;48368;53.406;6.214;2022-12-29T16:09:06;36.45;;;4.72;;
62338;SDS011;48368;53.406;6.214;2022-12-29T16:11:40;24.58;;;3.50;;
62338;SDS011;48368;53.406;6.214;2022-12-29T16:14:10;37.63;;;4.70;;
62338;SDS011;48368;53.406;6.214;2022-12-29T16:16:44;23.88;;;3.83;;
62338;SDS011;48368;53.406;6.214;2022-12-29T16:19:13;39.47;;;3.65;;
62338;SDS011;48368;53.406;6.214;2022-12-29T16:21:45;17.88;;;4.60;;
62338;SDS011;48368;53.406;6.214;2022-12-29T16:24:15;28.40;;;3.80;;
62338;SDS011;48368;53.406;6.214;2022-12-29T16:26:53;19.77;;;3.28;;
62338;SDS011;48368;53.406;6.214;2022-12-29T16:29:26;21.67;;;3.63;;
62338;SDS011;48368;53.406;6.214;2022-12-29T16:31:55;17.65;;;2.75;;
62338;SDS011;48368;53.406;6.214;2022-12-29T16:37:03;22.65;;;3.88;;
62338;SDS011;48368;53.406;6.214;2022-12-29T16:39:46;13.07;;;2.95;;
62338;SDS011;48368;53.406;6.214;2022-12-29T16:50:29;21.15;;;2.08;;
62338;SDS011;48368;53.406;6.214;2022-12-29T16:52:56;34.10;;;6.03;;
62338;SDS011;48368;53.406;6.214;2022-12-29T16:55:22;22.13;;;2.90;;
62338;SDS011;48368;53.406;6.214;2022-12-29T16:57:48;18.58;;;2.75;;
62338;SDS011;48368;53.406;6.214;2022-12-29T17:00:22;17.85;;;2.55;;
62338;SDS011;48368;53.406;6.214;2022-12-29T17:02:50;17.10;;;3.65;;
62338;SDS011;48368;53.406;6.214;2022-12-29T17:05:19;13.15;;;2.50;;
62338;SDS011;48368;53.406;6.214;2022-12-29T17:07:45;16.05;;;3.33;;
62338;SDS011;48368;53.406;6.214;2022-12-29T17:10:11;15.43;;;2.53;;
62338;SDS011;48368;53.406;6.214;2022-12-29T17:12:38;23.17;;;2.83;;
62338;SDS011;48368;53.406;6.214;2022-12-29T17:15:09;27.33;;;4.32;;
62338;SDS011;48368;53.406;6.214;2022-12-29T17:17:44;18.15;;;2.90;;
62338;SDS011;48368;53.406;6.214;2022-12-29T17:22:48;13.75;;;2.88;;